Sign in

Links

Info

Aviation weather

METAR KDAB 152253Z 24003KT 10SM FEW060 FEW150 BKN250 19/14 A3008 RMK AO2 SLP184 T01940139

Aviation weather from ADDS. Re-check weather before flight.

-